sensor_id;sensor_type;location;lat;lon;timestamp;P1;durP1;ratioP1;P2;durP2;ratioP2
2201;SDS011;1107;48.654;9.250;2023-05-07T00:00:47;5.27;;;4.97;;
2201;SDS011;1107;48.654;9.250;2023-05-07T00:03:16;5.30;;;5.00;;
2201;SDS011;1107;48.654;9.250;2023-05-07T00:05:44;5.33;;;5.03;;
2201;SDS011;1107;48.654;9.250;2023-05-07T00:08:11;5.50;;;4.97;;
2201;SDS011;1107;48.654;9.250;2023-05-07T00:10:38;5.80;;;5.00;;
2201;SDS011;1107;48.654;9.250;2023-05-07T00:13:05;6.20;;;5.77;;
2201;SDS011;1107;48.654;9.250;2023-05-07T00:15:32;6.40;;;6.00;;
2201;SDS011;1107;48.654;9.250;2023-05-07T00:17:59;5.87;;;5.37;;
2201;SDS011;1107;48.654;9.250;2023-05-07T00:20:28;6.40;;;6.00;;
2201;SDS011;1107;48.654;9.250;2023-05-07T00:22:55;6.70;;;6.40;;
2201;SDS011;1107;48.654;9.250;2023-05-07T00:25:22;8.47;;;6.20;;
2201;SDS011;1107;48.654;9.250;2023-05-07T00:27:49;7.50;;;7.00;;
2201;SDS011;1107;48.654;9.250;2023-05-07T00:30:16;11.13;;;7.23;;
2201;SDS011;1107;48.654;9.250;2023-05-07T00:32:43;6.67;;;6.37;;
2201;SDS011;1107;48.654;9.250;2023-05-07T00:35:11;9.97;;;7.27;;
2201;SDS011;1107;48.654;9.250;2023-05-07T00:37:39;7.10;;;6.60;;
2201;SDS011;1107;48.654;9.250;2023-05-07T00:40:06;8.10;;;6.40;;
2201;SDS011;1107;48.654;9.250;2023-05-07T00:42:34;6.37;;;6.07;;
2201;SDS011;1107;48.654;9.250;2023-05-07T00:45:01;6.83;;;6.23;;
2201;SDS011;1107;48.654;9.250;2023-05-07T00:47:29;5.03;;;4.73;;
2201;SDS011;1107;48.654;9.250;2023-05-07T00:49:56;5.87;;;5.57;;
2201;SDS011;1107;48.654;9.250;2023-05-07T00:52:23;5.10;;;4.90;;
2201;SDS011;1107;48.654;9.250;2023-05-07T00:54:53;4.90;;;4.70;;
2201;SDS011;1107;48.654;9.250;2023-05-07T00:57:21;4.50;;;4.30;;
2201;SDS011;1107;48.654;9.250;2023-05-07T00:59:50;4.67;;;4.47;;
2201;SDS011;1107;48.654;9.250;2023-05-07T01:02:17;4.57;;;4.23;;
2201;SDS011;1107;48.654;9.250;2023-05-07T01:04:44;4.47;;;4.27;;
2201;SDS011;1107;48.654;9.250;2023-05-07T01:07:11;4.33;;;4.13;;
2201;SDS011;1107;48.654;9.250;2023-05-07T01:09:39;4.67;;;4.40;;
2201;SDS011;1107;48.654;9.250;2023-05-07T01:12:08;4.50;;;4.10;;
2201;SDS011;1107;48.654;9.250;2023-05-07T01:14:35;4.47;;;4.23;;
2201;SDS011;1107;48.654;9.250;2023-05-07T01:17:02;4.40;;;4.00;;
2201;SDS011;1107;48.654;9.250;2023-05-07T01:19:29;4.23;;;4.03;;
2201;SDS011;1107;48.654;9.250;2023-05-07T01:21:59;4.10;;;3.90;;
2201;SDS011;1107;48.654;9.250;2023-05-07T01:24:30;4.33;;;4.03;;
2201;SDS011;1107;48.654;9.250;2023-05-07T01:26:58;5.10;;;3.73;;
2201;SDS011;1107;48.654;9.250;2023-05-07T01:29:26;3.90;;;3.70;;
2201;SDS011;1107;48.654;9.250;2023-05-07T01:31:53;4.03;;;3.73;;
2201;SDS011;1107;48.654;9.250;2023-05-07T01:34:22;4.30;;;4.00;;
2201;SDS011;1107;48.654;9.250;2023-05-07T01:36:50;6.63;;;3.67;;
2201;SDS011;1107;48.654;9.250;2023-05-07T01:39:20;5.00;;;3.80;;
2201;SDS011;1107;48.654;9.250;2023-05-07T01:41:49;3.60;;;3.40;;
2201;SDS011;1107;48.654;9.250;2023-05-07T01:44:16;3.60;;;3.40;;
2201;SDS011;1107;48.654;9.250;2023-05-07T01:46:45;3.70;;;3.50;;
2201;SDS011;1107;48.654;9.250;2023-05-07T01:49:12;3.83;;;3.63;;
2201;SDS011;1107;48.654;9.250;2023-05-07T01:51:39;3.90;;;3.60;;
2201;SDS011;1107;48.654;9.250;2023-05-07T01:54:06;4.20;;;4.00;;
2201;SDS011;1107;48.654;9.250;2023-05-07T01:56:33;4.23;;;3.93;;
2201;SDS011;1107;48.654;9.250;2023-05-07T01:59:02;4.07;;;3.83;;
2201;SDS011;1107;48.654;9.250;2023-05-07T02:01:29;4.77;;;3.60;;
2201;SDS011;1107;48.654;9.250;2023-05-07T02:03:57;3.53;;;3.33;;
2201;SDS011;1107;48.654;9.250;2023-05-07T02:06:24;3.90;;;3.70;;
2201;SDS011;1107;48.654;9.250;2023-05-07T02:08:51;3.97;;;3.67;;
2201;SDS011;1107;48.654;9.250;2023-05-07T02:11:18;4.03;;;3.60;;
2201;SDS011;1107;48.654;9.250;2023-05-07T02:13:45;4.40;;;4.10;;
2201;SDS011;1107;48.654;9.250;2023-05-07T02:16:13;4.40;;;4.00;;
2201;SDS011;1107;48.654;9.250;2023-05-07T02:18:40;4.20;;;4.00;;
2201;SDS011;1107;48.654;9.250;2023-05-07T02:21:07;3.93;;;3.60;;
2201;SDS011;1107;48.654;9.250;2023-05-07T02:23:34;3.80;;;3.60;;
2201;SDS011;1107;48.654;9.250;2023-05-07T02:26:01;4.70;;;4.27;;
2201;SDS011;1107;48.654;9.250;2023-05-07T02:28:28;4.33;;;3.60;;
2201;SDS011;1107;48.654;9.250;2023-05-07T02:30:55;4.90;;;3.80;;
2201;SDS011;1107;48.654;9.250;2023-05-07T02:33:25;3.23;;;3.03;;
2201;SDS011;1107;48.654;9.250;2023-05-07T02:35:52;4.17;;;3.87;;
2201;SDS011;1107;48.654;9.250;2023-05-07T02:38:19;4.43;;;4.23;;
2201;SDS011;1107;48.654;9.250;2023-05-07T02:40:46;6.57;;;4.47;;
2201;SDS011;1107;48.654;9.250;2023-05-07T02:43:13;20.97;;;3.77;;
2201;SDS011;1107;48.654;9.250;2023-05-07T02:45:40;4.03;;;3.83;;
2201;SDS011;1107;48.654;9.250;2023-05-07T02:48:08;4.97;;;3.87;;
2201;SDS011;1107;48.654;9.250;2023-05-07T02:50:36;4.60;;;4.40;;
2201;SDS011;1107;48.654;9.250;2023-05-07T02:53:03;5.23;;;4.70;;
2201;SDS011;1107;48.654;9.250;2023-05-07T02:55:30;4.77;;;4.57;;
2201;SDS011;1107;48.654;9.250;2023-05-07T02:57:57;4.77;;;4.47;;
2201;SDS011;1107;48.654;9.250;2023-05-07T03:00:24;5.70;;;5.40;;
2201;SDS011;1107;48.654;9.250;2023-05-07T03:02:51;5.67;;;5.30;;
2201;SDS011;1107;48.654;9.250;2023-05-07T03:05:18;5.50;;;5.20;;
2201;SDS011;1107;48.654;9.250;2023-05-07T03:07:46;5.33;;;5.03;;
2201;SDS011;1107;48.654;9.250;2023-05-07T03:10:13;4.60;;;4.40;;
2201;SDS011;1107;48.654;9.250;2023-05-07T03:12:40;7.27;;;4.43;;
2201;SDS011;1107;48.654;9.250;2023-05-07T03:15:08;5.47;;;4.03;;
2201;SDS011;1107;48.654;9.250;2023-05-07T03:17:36;4.40;;;4.20;;
2201;SDS011;1107;48.654;9.250;2023-05-07T03:20:03;4.20;;;4.00;;
2201;SDS011;1107;48.654;9.250;2023-05-07T03:22:32;4.53;;;4.20;;
2201;SDS011;1107;48.654;9.250;2023-05-07T03:25:00;10.03;;;4.50;;
2201;SDS011;1107;48.654;9.250;2023-05-07T03:27:27;4.30;;;4.00;;
2201;SDS011;1107;48.654;9.250;2023-05-07T03:29:54;4.00;;;3.80;;
2201;SDS011;1107;48.654;9.250;2023-05-07T03:32:21;4.57;;;4.17;;
2201;SDS011;1107;48.654;9.250;2023-05-07T03:34:48;4.13;;;3.93;;
2201;SDS011;1107;48.654;9.250;2023-05-07T03:37:15;4.53;;;4.33;;
2201;SDS011;1107;48.654;9.250;2023-05-07T03:39:42;5.00;;;4.70;;
2201;SDS011;1107;48.654;9.250;2023-05-07T03:42:10;5.60;;;5.00;;
2201;SDS011;1107;48.654;9.250;2023-05-07T03:44:38;4.50;;;4.30;;
2201;SDS011;1107;48.654;9.250;2023-05-07T03:47:05;4.90;;;4.60;;
2201;SDS011;1107;48.654;9.250;2023-05-07T03:49:31;5.20;;;5.00;;
2201;SDS011;1107;48.654;9.250;2023-05-07T03:51:58;5.50;;;5.23;;
2201;SDS011;1107;48.654;9.250;2023-05-07T03:54:25;5.47;;;5.07;;
2201;SDS011;1107;48.654;9.250;2023-05-07T03:56:52;5.23;;;4.93;;
2201;SDS011;1107;48.654;9.250;2023-05-07T03:59:21;4.87;;;4.47;;
2201;SDS011;1107;48.654;9.250;2023-05-07T04:01:48;4.87;;;4.57;;
2201;SDS011;1107;48.654;9.250;2023-05-07T04:04:15;5.50;;;5.10;;
2201;SDS011;1107;48.654;9.250;2023-05-07T04:06:42;5.10;;;4.80;;
2201;SDS011;1107;48.654;9.250;2023-05-07T04:09:09;5.30;;;4.80;;
2201;SDS011;1107;48.654;9.250;2023-05-07T04:11:36;5.30;;;4.77;;
2201;SDS011;1107;48.654;9.250;2023-05-07T04:14:05;6.90;;;5.53;;
2201;SDS011;1107;48.654;9.250;2023-05-07T04:16:34;5.00;;;4.67;;
2201;SDS011;1107;48.654;9.250;2023-05-07T04:19:01;5.23;;;4.93;;
2201;SDS011;1107;48.654;9.250;2023-05-07T04:21:28;5.20;;;4.87;;
2201;SDS011;1107;48.654;9.250;2023-05-07T04:23:55;5.70;;;5.40;;
2201;SDS011;1107;48.654;9.250;2023-05-07T04:26:22;5.03;;;4.73;;
2201;SDS011;1107;48.654;9.250;2023-05-07T04:28:49;5.43;;;5.03;;
2201;SDS011;1107;48.654;9.250;2023-05-07T04:31:16;5.20;;;4.90;;
2201;SDS011;1107;48.654;9.250;2023-05-07T04:33:45;5.80;;;5.50;;
2201;SDS011;1107;48.654;9.250;2023-05-07T04:36:11;7.70;;;5.00;;
2201;SDS011;1107;48.654;9.250;2023-05-07T04:38:39;5.70;;;5.40;;
2201;SDS011;1107;48.654;9.250;2023-05-07T04:41:06;8.27;;;7.57;;
2201;SDS011;1107;48.654;9.250;2023-05-07T04:43:34;9.10;;;8.70;;
2201;SDS011;1107;48.654;9.250;2023-05-07T04:46:01;6.20;;;5.80;;
2201;SDS011;1107;48.654;9.250;2023-05-07T04:48:28;6.10;;;5.03;;
2201;SDS011;1107;48.654;9.250;2023-05-07T04:50:57;6.33;;;5.83;;
2201;SDS011;1107;48.654;9.250;2023-05-07T04:53:23;5.53;;;5.23;;
2201;SDS011;1107;48.654;9.250;2023-05-07T04:55:54;5.43;;;5.13;;
2201;SDS011;1107;48.654;9.250;2023-05-07T04:58:22;5.00;;;4.70;;
2201;SDS011;1107;48.654;9.250;2023-05-07T05:00:49;5.97;;;5.37;;
2201;SDS011;1107;48.654;9.250;2023-05-07T05:03:15;7.83;;;7.33;;
2201;SDS011;1107;48.654;9.250;2023-05-07T05:05:43;6.90;;;6.60;;
2201;SDS011;1107;48.654;9.250;2023-05-07T05:08:11;5.40;;;5.20;;
2201;SDS011;1107;48.654;9.250;2023-05-07T05:10:38;5.60;;;5.10;;
2201;SDS011;1107;48.654;9.250;2023-05-07T05:13:06;5.40;;;5.10;;
2201;SDS011;1107;48.654;9.250;2023-05-07T05:15:34;11.43;;;5.50;;
2201;SDS011;1107;48.654;9.250;2023-05-07T05:18:01;6.20;;;5.50;;
2201;SDS011;1107;48.654;9.250;2023-05-07T05:20:28;4.67;;;4.47;;
2201;SDS011;1107;48.654;9.250;2023-05-07T05:22:55;5.00;;;4.70;;
2201;SDS011;1107;48.654;9.250;2023-05-07T05:25:23;4.83;;;4.33;;
2201;SDS011;1107;48.654;9.250;2023-05-07T05:27:50;5.07;;;4.77;;
2201;SDS011;1107;48.654;9.250;2023-05-07T05:30:17;4.80;;;4.60;;
2201;SDS011;1107;48.654;9.250;2023-05-07T05:32:44;5.10;;;4.80;;
2201;SDS011;1107;48.654;9.250;2023-05-07T05:35:11;5.47;;;5.17;;
2201;SDS011;1107;48.654;9.250;2023-05-07T05:37:38;5.43;;;4.93;;
2201;SDS011;1107;48.654;9.250;2023-05-07T05:40:05;5.60;;;5.20;;
2201;SDS011;1107;48.654;9.250;2023-05-07T05:42:34;5.43;;;5.13;;
2201;SDS011;1107;48.654;9.250;2023-05-07T05:45:01;5.27;;;4.87;;
2201;SDS011;1107;48.654;9.250;2023-05-07T05:47:29;4.87;;;4.67;;
2201;SDS011;1107;48.654;9.250;2023-05-07T05:49:56;5.53;;;5.03;;
2201;SDS011;1107;48.654;9.250;2023-05-07T05:52:23;8.20;;;5.50;;
2201;SDS011;1107;48.654;9.250;2023-05-07T05:54:50;5.10;;;4.80;;
2201;SDS011;1107;48.654;9.250;2023-05-07T05:57:17;5.40;;;5.10;;
2201;SDS011;1107;48.654;9.250;2023-05-07T05:59:45;5.43;;;5.23;;
2201;SDS011;1107;48.654;9.250;2023-05-07T06:02:13;4.77;;;4.57;;
2201;SDS011;1107;48.654;9.250;2023-05-07T06:04:40;5.43;;;4.93;;
2201;SDS011;1107;48.654;9.250;2023-05-07T06:07:07;4.93;;;4.73;;
2201;SDS011;1107;48.654;9.250;2023-05-07T06:09:34;5.43;;;5.13;;
2201;SDS011;1107;48.654;9.250;2023-05-07T06:12:01;4.40;;;4.20;;
2201;SDS011;1107;48.654;9.250;2023-05-07T06:14:28;5.20;;;5.00;;
2201;SDS011;1107;48.654;9.250;2023-05-07T06:16:57;5.40;;;5.10;;
2201;SDS011;1107;48.654;9.250;2023-05-07T06:19:24;4.97;;;4.67;;
2201;SDS011;1107;48.654;9.250;2023-05-07T06:21:53;6.10;;;5.70;;
2201;SDS011;1107;48.654;9.250;2023-05-07T06:24:21;5.63;;;5.43;;
2201;SDS011;1107;48.654;9.250;2023-05-07T06:26:48;5.70;;;5.40;;
2201;SDS011;1107;48.654;9.250;2023-05-07T06:29:15;5.80;;;5.50;;
2201;SDS011;1107;48.654;9.250;2023-05-07T06:31:43;6.03;;;5.70;;
2201;SDS011;1107;48.654;9.250;2023-05-07T06:34:16;5.80;;;5.50;;
2201;SDS011;1107;48.654;9.250;2023-05-07T06:36:43;5.23;;;5.03;;
2201;SDS011;1107;48.654;9.250;2023-05-07T06:39:10;6.03;;;5.63;;
2201;SDS011;1107;48.654;9.250;2023-05-07T06:41:37;5.10;;;4.90;;
2201;SDS011;1107;48.654;9.250;2023-05-07T06:44:04;5.53;;;5.03;;
2201;SDS011;1107;48.654;9.250;2023-05-07T06:46:31;5.40;;;5.20;;
2201;SDS011;1107;48.654;9.250;2023-05-07T06:48:58;5.83;;;5.53;;
2201;SDS011;1107;48.654;9.250;2023-05-07T06:51:26;5.40;;;5.20;;
2201;SDS011;1107;48.654;9.250;2023-05-07T06:53:53;6.20;;;5.80;;
2201;SDS011;1107;48.654;9.250;2023-05-07T06:56:20;6.20;;;5.83;;
2201;SDS011;1107;48.654;9.250;2023-05-07T06:58:48;6.17;;;5.77;;
2201;SDS011;1107;48.654;9.250;2023-05-07T07:01:14;6.10;;;5.67;;
2201;SDS011;1107;48.654;9.250;2023-05-07T07:03:42;6.13;;;5.83;;
2201;SDS011;1107;48.654;9.250;2023-05-07T07:06:09;5.80;;;5.60;;
2201;SDS011;1107;48.654;9.250;2023-05-07T07:08:37;6.50;;;6.20;;
2201;SDS011;1107;48.654;9.250;2023-05-07T07:11:04;5.90;;;5.70;;
2201;SDS011;1107;48.654;9.250;2023-05-07T07:13:31;5.13;;;4.93;;
2201;SDS011;1107;48.654;9.250;2023-05-07T07:15:58;6.20;;;5.90;;
2201;SDS011;1107;48.654;9.250;2023-05-07T07:18:26;6.13;;;5.50;;
2201;SDS011;1107;48.654;9.250;2023-05-07T07:20:53;6.17;;;5.77;;
2201;SDS011;1107;48.654;9.250;2023-05-07T07:23:20;6.03;;;5.63;;
2201;SDS011;1107;48.654;9.250;2023-05-07T07:25:48;6.33;;;5.77;;
2201;SDS011;1107;48.654;9.250;2023-05-07T07:28:15;5.10;;;4.90;;
2201;SDS011;1107;48.654;9.250;2023-05-07T07:30:43;6.90;;;6.20;;
2201;SDS011;1107;48.654;9.250;2023-05-07T07:33:10;6.80;;;6.40;;
2201;SDS011;1107;48.654;9.250;2023-05-07T07:35:36;6.23;;;5.93;;
2201;SDS011;1107;48.654;9.250;2023-05-07T07:38:03;6.40;;;5.93;;
2201;SDS011;1107;48.654;9.250;2023-05-07T07:40:30;7.77;;;6.23;;
2201;SDS011;1107;48.654;9.250;2023-05-07T07:42:59;5.27;;;5.00;;
2201;SDS011;1107;48.654;9.250;2023-05-07T07:45:26;6.33;;;5.93;;
2201;SDS011;1107;48.654;9.250;2023-05-07T07:47:54;5.47;;;5.17;;
2201;SDS011;1107;48.654;9.250;2023-05-07T07:50:21;6.00;;;5.70;;
2201;SDS011;1107;48.654;9.250;2023-05-07T07:52:48;6.17;;;5.57;;
2201;SDS011;1107;48.654;9.250;2023-05-07T07:55:15;6.50;;;6.20;;
2201;SDS011;1107;48.654;9.250;2023-05-07T07:57:48;5.93;;;5.60;;
2201;SDS011;1107;48.654;9.250;2023-05-07T08:00:17;9.20;;;6.33;;
2201;SDS011;1107;48.654;9.250;2023-05-07T08:02:44;5.40;;;5.20;;
2201;SDS011;1107;48.654;9.250;2023-05-07T08:05:12;5.97;;;5.67;;
2201;SDS011;1107;48.654;9.250;2023-05-07T08:07:40;5.47;;;5.27;;
2201;SDS011;1107;48.654;9.250;2023-05-07T08:10:07;7.80;;;5.87;;
2201;SDS011;1107;48.654;9.250;2023-05-07T08:12:36;5.40;;;5.20;;
2201;SDS011;1107;48.654;9.250;2023-05-07T08:15:03;6.30;;;5.93;;
2201;SDS011;1107;48.654;9.250;2023-05-07T08:17:32;6.23;;;5.73;;
2201;SDS011;1107;48.654;9.250;2023-05-07T08:19:59;5.60;;;5.40;;
2201;SDS011;1107;48.654;9.250;2023-05-07T08:22:27;5.90;;;5.60;;
2201;SDS011;1107;48.654;9.250;2023-05-07T08:24:54;5.27;;;5.07;;
2201;SDS011;1107;48.654;9.250;2023-05-07T08:27:20;5.37;;;5.17;;
2201;SDS011;1107;48.654;9.250;2023-05-07T08:29:47;5.20;;;4.90;;
2201;SDS011;1107;48.654;9.250;2023-05-07T08:32:14;5.80;;;5.50;;
2201;SDS011;1107;48.654;9.250;2023-05-07T08:34:43;5.07;;;4.87;;
2201;SDS011;1107;48.654;9.250;2023-05-07T08:37:10;6.27;;;5.40;;
2201;SDS011;1107;48.654;9.250;2023-05-07T08:39:37;5.33;;;5.13;;
2201;SDS011;1107;48.654;9.250;2023-05-07T08:42:04;5.70;;;5.30;;
2201;SDS011;1107;48.654;9.250;2023-05-07T08:44:32;5.83;;;5.37;;
2201;SDS011;1107;48.654;9.250;2023-05-07T08:47:01;5.33;;;5.10;;
2201;SDS011;1107;48.654;9.250;2023-05-07T08:49:28;4.83;;;4.63;;
2201;SDS011;1107;48.654;9.250;2023-05-07T08:51:57;5.03;;;4.77;;
2201;SDS011;1107;48.654;9.250;2023-05-07T08:54:25;5.23;;;4.90;;
2201;SDS011;1107;48.654;9.250;2023-05-07T08:56:54;5.03;;;4.73;;
2201;SDS011;1107;48.654;9.250;2023-05-07T08:59:21;7.13;;;5.27;;
2201;SDS011;1107;48.654;9.250;2023-05-07T09:01:48;4.60;;;4.30;;
2201;SDS011;1107;48.654;9.250;2023-05-07T09:04:16;4.90;;;4.70;;
2201;SDS011;1107;48.654;9.250;2023-05-07T09:06:43;5.00;;;4.70;;
2201;SDS011;1107;48.654;9.250;2023-05-07T09:09:15;5.47;;;5.27;;
2201;SDS011;1107;48.654;9.250;2023-05-07T09:11:43;4.87;;;4.57;;
2201;SDS011;1107;48.654;9.250;2023-05-07T09:14:10;4.60;;;4.40;;
2201;SDS011;1107;48.654;9.250;2023-05-07T09:16:37;4.60;;;4.40;;
2201;SDS011;1107;48.654;9.250;2023-05-07T09:19:05;4.27;;;4.07;;
2201;SDS011;1107;48.654;9.250;2023-05-07T09:21:32;3.80;;;3.60;;
2201;SDS011;1107;48.654;9.250;2023-05-07T09:23:59;4.70;;;4.50;;
2201;SDS011;1107;48.654;9.250;2023-05-07T09:26:27;4.80;;;4.60;;
2201;SDS011;1107;48.654;9.250;2023-05-07T09:28:54;3.70;;;3.50;;
2201;SDS011;1107;48.654;9.250;2023-05-07T09:31:21;4.83;;;4.47;;
2201;SDS011;1107;48.654;9.250;2023-05-07T09:33:50;4.63;;;4.33;;
2201;SDS011;1107;48.654;9.250;2023-05-07T09:36:18;4.20;;;3.90;;
2201;SDS011;1107;48.654;9.250;2023-05-07T09:38:45;4.20;;;4.00;;
2201;SDS011;1107;48.654;9.250;2023-05-07T09:41:13;4.77;;;4.40;;
2201;SDS011;1107;48.654;9.250;2023-05-07T09:43:41;3.83;;;3.63;;
2201;SDS011;1107;48.654;9.250;2023-05-07T09:46:11;4.00;;;3.80;;
2201;SDS011;1107;48.654;9.250;2023-05-07T09:48:39;3.77;;;3.57;;
2201;SDS011;1107;48.654;9.250;2023-05-07T09:51:15;3.80;;;3.60;;
2201;SDS011;1107;48.654;9.250;2023-05-07T09:53:48;3.90;;;3.70;;
2201;SDS011;1107;48.654;9.250;2023-05-07T09:56:18;3.53;;;3.33;;
2201;SDS011;1107;48.654;9.250;2023-05-07T09:58:48;5.70;;;3.50;;
2201;SDS011;1107;48.654;9.250;2023-05-07T10:01:16;4.20;;;3.80;;
2201;SDS011;1107;48.654;9.250;2023-05-07T10:03:47;3.80;;;3.60;;
2201;SDS011;1107;48.654;9.250;2023-05-07T10:06:16;3.70;;;3.50;;
2201;SDS011;1107;48.654;9.250;2023-05-07T10:08:43;3.77;;;3.57;;
2201;SDS011;1107;48.654;9.250;2023-05-07T10:11:11;3.60;;;3.40;;
2201;SDS011;1107;48.654;9.250;2023-05-07T10:13:38;3.30;;;3.10;;
2201;SDS011;1107;48.654;9.250;2023-05-07T10:16:08;4.00;;;3.80;;
2201;SDS011;1107;48.654;9.250;2023-05-07T10:18:35;5.93;;;4.00;;
2201;SDS011;1107;48.654;9.250;2023-05-07T10:21:07;3.73;;;3.23;;
2201;SDS011;1107;48.654;9.250;2023-05-07T10:23:35;4.20;;;3.53;;
2201;SDS011;1107;48.654;9.250;2023-05-07T10:26:03;3.87;;;3.67;;
2201;SDS011;1107;48.654;9.250;2023-05-07T10:28:33;4.03;;;3.73;;
2201;SDS011;1107;48.654;9.250;2023-05-07T10:31:08;3.80;;;3.60;;
2201;SDS011;1107;48.654;9.250;2023-05-07T10:33:49;4.17;;;3.87;;
2201;SDS011;1107;48.654;9.250;2023-05-07T10:36:17;3.60;;;3.40;;
2201;SDS011;1107;48.654;9.250;2023-05-07T10:38:45;3.70;;;3.50;;
2201;SDS011;1107;48.654;9.250;2023-05-07T10:41:12;3.77;;;3.57;;
2201;SDS011;1107;48.654;9.250;2023-05-07T10:43:41;4.13;;;3.77;;
2201;SDS011;1107;48.654;9.250;2023-05-07T10:46:10;3.50;;;3.30;;
2201;SDS011;1107;48.654;9.250;2023-05-07T10:51:40;4.40;;;4.10;;
2201;SDS011;1107;48.654;9.250;2023-05-07T10:54:22;3.60;;;3.40;;
2201;SDS011;1107;48.654;9.250;2023-05-07T10:56:52;3.73;;;3.53;;
2201;SDS011;1107;48.654;9.250;2023-05-07T10:59:36;4.00;;;3.80;;
2201;SDS011;1107;48.654;9.250;2023-05-07T11:02:09;3.87;;;3.67;;
2201;SDS011;1107;48.654;9.250;2023-05-07T11:04:40;4.07;;;3.87;;
2201;SDS011;1107;48.654;9.250;2023-05-07T11:07:29;3.90;;;3.60;;
2201;SDS011;1107;48.654;9.250;2023-05-07T11:09:57;3.97;;;3.70;;
2201;SDS011;1107;48.654;9.250;2023-05-07T11:15:33;3.80;;;3.60;;
2201;SDS011;1107;48.654;9.250;2023-05-07T11:18:04;3.90;;;3.60;;
2201;SDS011;1107;48.654;9.250;2023-05-07T11:20:49;3.80;;;3.60;;
2201;SDS011;1107;48.654;9.250;2023-05-07T11:26:27;3.70;;;3.50;;
2201;SDS011;1107;48.654;9.250;2023-05-07T11:28:56;3.90;;;3.60;;
2201;SDS011;1107;48.654;9.250;2023-05-07T11:31:26;3.70;;;3.40;;
2201;SDS011;1107;48.654;9.250;2023-05-07T11:33:55;3.97;;;3.77;;
2201;SDS011;1107;48.654;9.250;2023-05-07T11:36:24;3.90;;;3.60;;
2201;SDS011;1107;48.654;9.250;2023-05-07T11:38:52;3.47;;;3.27;;
2201;SDS011;1107;48.654;9.250;2023-05-07T11:41:19;3.93;;;3.63;;
2201;SDS011;1107;48.654;9.250;2023-05-07T11:43:53;3.50;;;3.30;;
2201;SDS011;1107;48.654;9.250;2023-05-07T11:46:22;3.37;;;3.17;;
2201;SDS011;1107;48.654;9.250;2023-05-07T11:48:50;3.43;;;3.23;;
2201;SDS011;1107;48.654;9.250;2023-05-07T11:51:20;4.73;;;3.53;;
2201;SDS011;1107;48.654;9.250;2023-05-07T11:53:50;3.53;;;3.33;;
2201;SDS011;1107;48.654;9.250;2023-05-07T11:56:17;3.23;;;3.00;;
2201;SDS011;1107;48.654;9.250;2023-05-07T11:58:46;3.40;;;3.20;;
2201;SDS011;1107;48.654;9.250;2023-05-07T12:01:14;3.57;;;3.37;;
2201;SDS011;1107;48.654;9.250;2023-05-07T12:03:44;3.63;;;3.43;;
2201;SDS011;1107;48.654;9.250;2023-05-07T12:06:12;3.50;;;3.30;;
2201;SDS011;1107;48.654;9.250;2023-05-07T12:08:40;3.60;;;3.30;;
2201;SDS011;1107;48.654;9.250;2023-05-07T12:11:14;3.50;;;3.20;;
2201;SDS011;1107;48.654;9.250;2023-05-07T12:13:43;3.50;;;3.30;;
2201;SDS011;1107;48.654;9.250;2023-05-07T12:16:10;3.50;;;3.30;;
2201;SDS011;1107;48.654;9.250;2023-05-07T12:18:38;3.93;;;2.80;;
2201;SDS011;1107;48.654;9.250;2023-05-07T12:21:06;2.80;;;2.60;;
2201;SDS011;1107;48.654;9.250;2023-05-07T12:23:34;4.20;;;2.87;;
2201;SDS011;1107;48.654;9.250;2023-05-07T12:26:02;2.83;;;2.53;;
2201;SDS011;1107;48.654;9.250;2023-05-07T12:28:31;2.30;;;2.20;;
2201;SDS011;1107;48.654;9.250;2023-05-07T12:31:03;2.93;;;2.50;;
2201;SDS011;1107;48.654;9.250;2023-05-07T12:33:30;2.77;;;2.57;;
2201;SDS011;1107;48.654;9.250;2023-05-07T12:35:58;2.47;;;2.30;;
2201;SDS011;1107;48.654;9.250;2023-05-07T12:38:32;2.07;;;1.97;;
2201;SDS011;1107;48.654;9.250;2023-05-07T12:41:01;2.77;;;2.57;;
2201;SDS011;1107;48.654;9.250;2023-05-07T12:43:28;2.30;;;2.10;;
2201;SDS011;1107;48.654;9.250;2023-05-07T12:45:59;2.60;;;2.40;;
2201;SDS011;1107;48.654;9.250;2023-05-07T12:48:27;4.03;;;2.90;;
2201;SDS011;1107;48.654;9.250;2023-05-07T12:50:55;7.53;;;3.10;;
2201;SDS011;1107;48.654;9.250;2023-05-07T12:53:23;6.20;;;3.00;;
2201;SDS011;1107;48.654;9.250;2023-05-07T12:55:51;4.03;;;3.03;;
2201;SDS011;1107;48.654;9.250;2023-05-07T12:58:20;3.23;;;2.93;;
2201;SDS011;1107;48.654;9.250;2023-05-07T13:00:49;3.03;;;2.70;;
2201;SDS011;1107;48.654;9.250;2023-05-07T13:03:20;2.07;;;1.97;;
2201;SDS011;1107;48.654;9.250;2023-05-07T13:05:49;2.40;;;2.20;;
2201;SDS011;1107;48.654;9.250;2023-05-07T13:08:26;2.90;;;2.70;;
2201;SDS011;1107;48.654;9.250;2023-05-07T13:10:54;3.20;;;2.50;;
2201;SDS011;1107;48.654;9.250;2023-05-07T13:13:21;2.93;;;2.23;;
2201;SDS011;1107;48.654;9.250;2023-05-07T13:15:49;3.67;;;1.93;;
2201;SDS011;1107;48.654;9.250;2023-05-07T13:18:16;2.23;;;2.03;;
2201;SDS011;1107;48.654;9.250;2023-05-07T13:20:43;3.87;;;2.13;;
2201;SDS011;1107;48.654;9.250;2023-05-07T13:23:11;2.30;;;2.10;;
2201;SDS011;1107;48.654;9.250;2023-05-07T13:25:37;2.60;;;2.40;;
2201;SDS011;1107;48.654;9.250;2023-05-07T13:28:05;3.80;;;2.80;;
2201;SDS011;1107;48.654;9.250;2023-05-07T13:30:32;2.50;;;2.30;;
2201;SDS011;1107;48.654;9.250;2023-05-07T13:33:00;3.13;;;2.83;;
2201;SDS011;1107;48.654;9.250;2023-05-07T13:35:27;3.27;;;2.67;;
2201;SDS011;1107;48.654;9.250;2023-05-07T13:37:54;2.60;;;2.40;;
2201;SDS011;1107;48.654;9.250;2023-05-07T13:40:21;2.43;;;2.27;;
2201;SDS011;1107;48.654;9.250;2023-05-07T13:42:49;4.70;;;2.87;;
2201;SDS011;1107;48.654;9.250;2023-05-07T13:45:17;3.10;;;2.90;;
2201;SDS011;1107;48.654;9.250;2023-05-07T13:47:44;2.70;;;2.50;;
2201;SDS011;1107;48.654;9.250;2023-05-07T13:50:13;3.20;;;3.00;;
2201;SDS011;1107;48.654;9.250;2023-05-07T13:52:40;3.93;;;3.33;;
2201;SDS011;1107;48.654;9.250;2023-05-07T13:55:10;3.80;;;3.40;;
2201;SDS011;1107;48.654;9.250;2023-05-07T13:57:38;3.50;;;3.20;;
2201;SDS011;1107;48.654;9.250;2023-05-07T14:00:06;3.20;;;3.00;;
2201;SDS011;1107;48.654;9.250;2023-05-07T14:02:34;5.77;;;3.63;;
2201;SDS011;1107;48.654;9.250;2023-05-07T14:05:01;6.37;;;3.80;;
2201;SDS011;1107;48.654;9.250;2023-05-07T14:07:29;7.10;;;4.40;;
2201;SDS011;1107;48.654;9.250;2023-05-07T14:09:56;4.80;;;3.10;;
2201;SDS011;1107;48.654;9.250;2023-05-07T14:12:24;4.93;;;3.40;;
2201;SDS011;1107;48.654;9.250;2023-05-07T14:14:51;2.90;;;2.70;;
2201;SDS011;1107;48.654;9.250;2023-05-07T14:17:18;3.00;;;2.80;;
2201;SDS011;1107;48.654;9.250;2023-05-07T14:19:48;3.63;;;3.43;;
2201;SDS011;1107;48.654;9.250;2023-05-07T14:22:15;3.07;;;2.87;;
2201;SDS011;1107;48.654;9.250;2023-05-07T14:24:43;4.07;;;2.73;;
2201;SDS011;1107;48.654;9.250;2023-05-07T14:27:10;6.13;;;2.97;;
2201;SDS011;1107;48.654;9.250;2023-05-07T14:29:37;3.70;;;3.40;;
2201;SDS011;1107;48.654;9.250;2023-05-07T14:32:04;3.90;;;3.60;;
2201;SDS011;1107;48.654;9.250;2023-05-07T14:34:31;4.10;;;3.90;;
2201;SDS011;1107;48.654;9.250;2023-05-07T14:36:59;3.77;;;3.47;;
2201;SDS011;1107;48.654;9.250;2023-05-07T14:39:26;4.13;;;3.83;;
2201;SDS011;1107;48.654;9.250;2023-05-07T14:41:54;9.33;;;3.63;;
2201;SDS011;1107;48.654;9.250;2023-05-07T14:44:23;3.40;;;3.10;;
2201;SDS011;1107;48.654;9.250;2023-05-07T14:46:50;3.77;;;3.40;;
2201;SDS011;1107;48.654;9.250;2023-05-07T14:49:17;3.13;;;2.93;;
2201;SDS011;1107;48.654;9.250;2023-05-07T14:51:43;3.33;;;3.10;;
2201;SDS011;1107;48.654;9.250;2023-05-07T14:54:11;4.33;;;4.00;;
2201;SDS011;1107;48.654;9.250;2023-05-07T14:56:38;4.27;;;3.60;;
2201;SDS011;1107;48.654;9.250;2023-05-07T14:59:07;3.03;;;2.83;;
2201;SDS011;1107;48.654;9.250;2023-05-07T15:01:35;3.00;;;2.80;;
2201;SDS011;1107;48.654;9.250;2023-05-07T15:04:03;8.97;;;8.37;;
2201;SDS011;1107;48.654;9.250;2023-05-07T15:06:30;6.33;;;5.83;;
2201;SDS011;1107;48.654;9.250;2023-05-07T15:08:57;6.43;;;6.13;;
2201;SDS011;1107;48.654;9.250;2023-05-07T15:11:24;5.33;;;5.03;;
2201;SDS011;1107;48.654;9.250;2023-05-07T15:13:51;3.00;;;2.80;;
2201;SDS011;1107;48.654;9.250;2023-05-07T15:16:20;2.83;;;2.23;;
2201;SDS011;1107;48.654;9.250;2023-05-07T15:18:47;2.73;;;2.53;;
2201;SDS011;1107;48.654;9.250;2023-05-07T15:21:14;3.70;;;2.60;;
2201;SDS011;1107;48.654;9.250;2023-05-07T15:23:41;2.53;;;2.33;;
2201;SDS011;1107;48.654;9.250;2023-05-07T15:26:09;3.40;;;3.10;;
2201;SDS011;1107;48.654;9.250;2023-05-07T15:28:36;4.13;;;3.93;;